Time;durP1;ratioP1;P1;durP2;ratioP2;P2;SDS_P1;SDS_P2;PMS_P1;PMS_P2;Temp;Humidity;BMP_temperature;BMP_pressure;BME280_temperature;BME280_humidity;BME280_pressure;Samples;Min_cycle;Max_cycle;Signal;HPM_P1;HPM_P2
2020/12/29 00:00:12;;;;;;;6.63;5.05;;;6.50;86.00;;;;;;5094146;28;20109;-74
2020/12/29 00:02:38;;;;;;;6.88;5.10;;;6.50;85.90;;;;;;5094459;28;20039;-74
2020/12/29 00:05:04;;;;;;;6.43;5.63;;;6.50;85.90;;;;;;5095672;28;20028;-73
2020/12/29 00:07:29;;;;;;;6.00;5.25;;;6.50;85.90;;;;;;5094238;28;20387;-73
2020/12/29 00:09:55;;;;;;;6.60;5.60;;;6.50;85.90;;;;;;5094245;28;20024;-74
2020/12/29 00:12:21;;;;;;;8.07;5.68;;;6.40;85.90;;;;;;5094176;28;20067;-74
2020/12/29 00:14:46;;;;;;;6.47;5.47;;;6.40;86.00;;;;;;5094151;28;20035;-74
2020/12/29 00:17:12;;;;;;;6.00;5.40;;;6.40;86.00;;;;;;5094053;28;20024;-75
2020/12/29 00:19:38;;;;;;;6.88;5.82;;;6.40;86.10;;;;;;5095288;28;20024;-74
2020/12/29 00:22:03;;;;;;;7.13;6.22;;;6.40;86.10;;;;;;5094128;28;20042;-74
2020/12/29 00:24:29;;;;;;;6.00;5.35;;;6.40;86.10;;;;;;5095300;28;20024;-74
2020/12/29 00:26:55;;;;;;;5.18;4.68;;;6.40;86.10;;;;;;5095259;28;20055;-74
2020/12/29 00:29:20;;;;;;;8.57;5.03;;;6.40;86.10;;;;;;5095553;28;20032;-74
2020/12/29 00:31:46;;;;;;;6.47;5.18;;;6.40;86.10;;;;;;5093815;28;20024;-74
2020/12/29 00:34:12;;;;;;;5.72;4.97;;;6.40;86.10;;;;;;5093907;28;20085;-74
2020/12/29 00:36:38;;;;;;;7.07;5.55;;;6.50;86.10;;;;;;5095273;28;20344;-74
2020/12/29 00:39:04;;;;;;;6.55;4.90;;;6.50;86.10;;;;;;5095100;28;20024;-74
2020/12/29 00:41:30;;;;;;;5.68;4.47;;;6.50;86.10;;;;;;5095580;28;20461;-74
2020/12/29 00:43:55;;;;;;;5.32;4.82;;;6.40;86.00;;;;;;5093455;28;20096;-74
2020/12/29 00:46:22;;;;;;;6.00;4.55;;;6.40;86.00;;;;;;5094857;28;20031;-74
2020/12/29 00:48:48;;;;;;;5.57;4.45;;;6.40;86.00;;;;;;5093853;28;20107;-74
2020/12/29 00:51:18;;;;;;;5.93;5.13;;;6.40;86.10;;;;;;5094752;28;20106;-74
2020/12/29 00:53:44;;;;;;;5.55;4.78;;;6.40;86.10;;;;;;5093535;28;20024;-74
2020/12/29 00:56:11;;;;;;;6.22;5.15;;;6.40;86.10;;;;;;5093435;28;20450;-75
2020/12/29 00:58:39;;;;;;;5.70;4.63;;;6.40;86.10;;;;;;5093288;28;20031;-74
2020/12/29 01:01:06;;;;;;;6.13;4.68;;;6.40;86.10;;;;;;5094460;28;20070;-74
2020/12/29 01:03:32;;;;;;;5.30;4.80;;;6.40;86.20;;;;;;5093137;28;20035;-74
2020/12/29 01:05:58;;;;;;;5.22;4.43;;;6.40;86.10;;;;;;5093203;28;20122;-74
2020/12/29 01:08:23;;;;;;;5.25;4.60;;;6.40;86.10;;;;;;5094340;28;20020;-73
2020/12/29 01:10:54;;;;;;;5.65;4.30;;;6.40;86.10;;;;;;5094360;28;20475;-73
2020/12/29 01:13:20;;;;;;;5.47;4.70;;;6.40;86.10;;;;;;5092992;28;20081;-74
2020/12/29 01:15:46;;;;;;;5.35;4.53;;;6.40;86.10;;;;;;5092899;28;20115;-74
2020/12/29 01:18:12;;;;;;;5.93;4.85;;;6.50;86.10;;;;;;5092913;28;20445;-74
2020/12/29 01:20:37;;;;;;;5.22;4.38;;;6.40;86.00;;;;;;5094004;28;20024;-74
2020/12/29 01:23:03;;;;;;;5.32;4.43;;;6.50;86.00;;;;;;5094072;28;20020;-74
2020/12/29 01:25:29;;;;;;;5.53;4.78;;;6.50;86.70;;;;;;5094086;28;20023;-73
2020/12/29 01:27:55;;;;;;;5.50;4.82;;;6.50;86.00;;;;;;5094012;28;20032;-74
2020/12/29 01:30:20;;;;;;;4.90;4.25;;;6.50;86.10;;;;;;5094278;28;20399;-74
2020/12/29 01:32:46;;;;;;;5.03;4.50;;;6.50;86.10;;;;;;5092652;28;20038;-74
2020/12/29 01:35:12;;;;;;;5.45;4.45;;;6.50;86.00;;;;;;5093876;28;20039;-73
2020/12/29 01:37:42;;;;;;;4.75;4.15;;;6.50;86.00;;;;;;5092669;28;20131;-73
2020/12/29 01:40:08;;;;;;;5.18;4.00;;;6.50;85.90;;;;;;5093780;28;20450;-73
2020/12/29 01:42:34;;;;;;;5.10;3.65;;;6.50;85.90;;;;;;5092485;28;20028;-73
2020/12/29 01:45:00;;;;;;;4.13;3.72;;;6.50;85.90;;;;;;5092351;28;20035;-73
2020/12/29 01:47:28;;;;;;;4.00;3.50;;;6.50;85.90;;;;;;5092445;28;20026;-73
2020/12/29 01:49:54;;;;;;;4.03;3.53;;;6.50;85.90;;;;;;5092267;28;20435;-73
2020/12/29 01:52:19;;;;;;;4.22;3.70;;;6.50;85.80;;;;;;5092436;28;20085;-74
2020/12/29 01:54:45;;;;;;;4.57;3.72;;;6.50;85.80;;;;;;5093685;28;20107;-73
2020/12/29 01:57:12;;;;;;;4.88;4.25;;;6.40;85.70;;;;;;5092238;28;20475;-74
2020/12/29 01:59:37;;;;;;;4.28;3.70;;;6.40;85.70;;;;;;5092781;28;20142;-73
2020/12/29 02:02:03;;;;;;;7.50;4.43;;;6.40;85.70;;;;;;5093500;28;20103;-73
2020/12/29 02:04:29;;;;;;;5.80;3.70;;;6.40;85.80;;;;;;5093302;28;20059;-73
2020/12/29 02:06:55;;;;;;;6.82;4.53;;;6.40;85.80;;;;;;5093399;28;20119;-74
2020/12/29 02:09:21;;;;;;;5.82;4.05;;;6.30;85.80;;;;;;5092057;28;20455;-74
2020/12/29 02:11:46;;;;;;;4.30;3.90;;;6.30;85.70;;;;;;5091930;28;20028;-74
2020/12/29 02:14:15;;;;;;;5.60;4.45;;;6.40;85.80;;;;;;5091878;28;20490;-73
2020/12/29 02:16:43;;;;;;;7.45;4.03;;;6.40;85.80;;;;;;5091829;28;20129;-74
2020/12/29 02:19:09;;;;;;;4.18;3.78;;;6.40;85.70;;;;;;5091967;28;20027;-73
2020/12/29 02:21:36;;;;;;;4.25;3.75;;;6.40;85.60;;;;;;5091825;28;20024;-74
2020/12/29 02:24:03;;;;;;;5.35;3.90;;;6.30;85.60;;;;;;5091845;28;20020;-74
2020/12/29 02:26:31;;;;;;;4.18;3.75;;;6.30;85.50;;;;;;5091678;28;20085;-74
2020/12/29 02:29:05;;;;;;;5.55;4.32;;;6.30;85.60;;;;;;5091650;28;20157;-74
2020/12/29 02:31:31;;;;;;;5.03;4.10;;;6.30;85.60;;;;;;5091835;28;20368;-74
2020/12/29 02:33:57;;;;;;;4.28;3.65;;;6.30;85.60;;;;;;5091734;28;20020;-74
2020/12/29 02:36:23;;;;;;;5.32;4.35;;;6.30;85.60;;;;;;5093136;28;20360;-73
2020/12/29 02:38:48;;;;;;;3.95;3.55;;;6.40;85.70;;;;;;5091631;28;20074;-73
2020/12/29 02:41:16;;;;;;;6.07;4.18;;;6.30;85.60;;;;;;5091989;28;20126;-73
2020/12/29 02:43:42;;;;;;;4.57;4.00;;;6.30;85.50;;;;;;5091635;28;20028;-73
2020/12/29 02:46:09;;;;;;;4.28;3.88;;;6.30;85.50;;;;;;5091682;28;20058;-73
2020/12/29 02:48:34;;;;;;;5.00;4.10;;;6.30;85.50;;;;;;5092824;28;20016;-73
2020/12/29 02:51:00;;;;;;;4.30;3.90;;;6.40;85.60;;;;;;5091342;28;20050;-73
2020/12/29 02:53:26;;;;;;;4.78;4.28;;;6.40;85.50;;;;;;5092819;28;20074;-74
2020/12/29 02:55:51;;;;;;;5.57;4.20;;;6.40;85.50;;;;;;5091371;28;20395;-74
2020/12/29 02:58:17;;;;;;;6.95;4.55;;;6.40;85.40;;;;;;5092613;28;20068;-74
2020/12/29 03:00:42;;;;;;;5.78;4.40;;;6.40;85.40;;;;;;5091028;28;20044;-74
2020/12/29 03:03:08;;;;;;;5.32;4.15;;;6.40;85.40;;;;;;5091347;28;20402;-73
2020/12/29 03:05:34;;;;;;;6.20;4.85;;;6.30;85.40;;;;;;5092778;28;20111;-74
2020/12/29 03:07:59;;;;;;;5.65;4.63;;;6.40;85.40;;;;;;5091252;28;20103;-73
2020/12/29 03:10:25;;;;;;;4.97;4.18;;;6.30;85.30;;;;;;5091746;28;20024;-73
2020/12/29 03:12:51;;;;;;;6.63;4.68;;;6.30;85.40;;;;;;5096135;28;20409;-73
2020/12/29 03:15:16;;;;;;;4.70;4.20;;;6.30;85.40;;;;;;5095324;28;20053;-75
2020/12/29 03:17:42;;;;;;;6.47;4.85;;;6.30;85.40;;;;;;5095205;28;20368;-75
2020/12/29 03:20:07;;;;;;;5.47;4.35;;;6.30;85.30;;;;;;5095093;28;20459;-75
2020/12/29 03:22:33;;;;;;;5.65;4.88;;;6.30;85.30;;;;;;5095307;28;20031;-75
2020/12/29 03:24:59;;;;;;;5.43;4.93;;;6.20;85.30;;;;;;5097071;28;20058;-75
2020/12/29 03:27:25;;;;;;;5.55;4.55;;;6.30;85.50;;;;;;5095146;28;20008;-75
2020/12/29 03:29:50;;;;;;;5.57;4.60;;;6.30;85.50;;;;;;5095043;28;20024;-75
2020/12/29 03:32:16;;;;;;;5.65;4.68;;;6.30;85.50;;;;;;5094981;28;20020;-75
2020/12/29 03:34:42;;;;;;;4.65;4.13;;;6.30;85.40;;;;;;5096311;28;20028;-75
2020/12/29 03:37:09;;;;;;;6.78;4.88;;;6.30;85.40;;;;;;5096252;28;20028;-75
2020/12/29 03:39:37;;;;;;;5.47;4.57;;;6.30;85.40;;;;;;5095005;28;20020;-75
2020/12/29 03:42:04;;;;;;;6.05;4.80;;;6.30;86.10;;;;;;5094901;28;20024;-75
2020/12/29 03:44:30;;;;;;;5.40;4.50;;;6.30;85.50;;;;;;5094631;28;20112;-75
2020/12/29 03:46:56;;;;;;;4.90;4.35;;;6.40;85.50;;;;;;5094695;28;20027;-75
2020/12/29 03:49:22;;;;;;;6.72;4.80;;;6.40;85.40;;;;;;5094771;28;20024;-75
2020/12/29 03:51:47;;;;;;;4.93;4.32;;;6.40;85.40;;;;;;5094607;28;20467;-74
2020/12/29 03:54:13;;;;;;;4.95;4.45;;;6.40;85.40;;;;;;5094635;28;20031;-75
2020/12/29 03:56:39;;;;;;;5.30;4.70;;;6.40;85.40;;;;;;5095912;28;20024;-75
2020/12/29 03:59:05;;;;;;;5.63;4.57;;;6.40;85.40;;;;;;5096037;28;20467;-75
2020/12/29 04:01:31;;;;;;;5.80;5.20;;;6.30;85.30;;;;;;5095676;28;20048;-75
2020/12/29 04:03:56;;;;;;;5.65;5.00;;;6.30;85.30;;;;;;5095879;28;20028;-75
2020/12/29 04:06:22;;;;;;;5.55;4.40;;;6.20;85.20;;;;;;5095781;28;20378;-75
2020/12/29 04:08:48;;;;;;;5.32;4.72;;;6.20;85.20;;;;;;5095601;28;20426;-75
2020/12/29 04:11:14;;;;;;;6.53;5.15;;;6.20;85.20;;;;;;5094299;28;20024;-75
2020/12/29 04:13:40;;;;;;;5.95;4.47;;;6.20;85.30;;;;;;5094094;28;20093;-75
2020/12/29 04:16:06;;;;;;;6.13;4.68;;;6.20;85.30;;;;;;5095483;28;20038;-75
2020/12/29 04:18:32;;;;;;;5.20;4.50;;;6.10;85.30;;;;;;5094147;28;20028;-75
2020/12/29 04:20:58;;;;;;;5.10;4.50;;;6.10;85.40;;;;;;5095916;28;20039;-75
2020/12/29 04:23:24;;;;;;;6.28;4.38;;;6.10;85.40;;;;;;5093801;28;20031;-75
2020/12/29 04:25:50;;;;;;;5.68;5.07;;;6.10;85.40;;;;;;5094053;28;20056;-75
2020/12/29 04:28:15;;;;;;;6.43;4.90;;;6.10;85.40;;;;;;5094014;28;20032;-75
2020/12/29 04:30:41;;;;;;;5.85;5.05;;;6.10;85.40;;;;;;5095073;28;20024;-75
2020/12/29 04:33:07;;;;;;;7.07;5.30;;;6.10;85.50;;;;;;5093924;28;20024;-75
2020/12/29 04:35:33;;;;;;;7.32;5.20;;;6.10;85.50;;;;;;5090846;28;20028;-75
2020/12/29 04:38:00;;;;;;;6.28;5.07;;;6.10;85.40;;;;;;5094047;28;20482;-75
2020/12/29 04:40:26;;;;;;;5.88;4.70;;;6.10;85.40;;;;;;5093666;28;20028;-75
2020/12/29 04:42:53;;;;;;;5.75;4.82;;;6.10;85.50;;;;;;5093723;28;20364;-75
2020/12/29 04:45:19;;;;;;;7.25;5.43;;;6.10;85.60;;;;;;5095608;28;20116;-75
2020/12/29 04:47:46;;;;;;;6.95;5.38;;;6.10;85.60;;;;;;5095267;28;20040;-75
2020/12/29 04:50:14;;;;;;;5.75;5.03;;;6.00;85.60;;;;;;5093662;28;20440;-75
2020/12/29 04:52:44;;;;;;;5.63;4.90;;;6.10;85.70;;;;;;5095398;28;20052;-75
2020/12/29 04:55:10;;;;;;;6.85;5.55;;;6.10;85.70;;;;;;5095207;28;20024;-74
2020/12/29 04:57:35;;;;;;;6.38;5.03;;;6.10;85.80;;;;;;5093361;28;20046;-75
2020/12/29 05:00:05;;;;;;;7.32;4.65;;;6.10;85.80;;;;;;5093666;28;20056;-75
2020/12/29 05:02:30;;;;;;;6.43;4.80;;;6.10;85.80;;;;;;5094562;28;20077;-75
2020/12/29 05:04:56;;;;;;;8.38;5.10;;;6.10;85.80;;;;;;5094783;28;20065;-75
2020/12/29 05:07:21;;;;;;;6.95;4.90;;;6.10;85.80;;;;;;5095061;28;20080;-75
2020/12/29 05:09:47;;;;;;;6.82;5.60;;;6.20;85.80;;;;;;5093027;28;20425;-75
2020/12/29 05:12:16;;;;;;;6.57;4.80;;;6.10;85.70;;;;;;5093209;28;20036;-75
2020/12/29 05:14:44;;;;;;;7.57;5.30;;;6.10;85.60;;;;;;5093444;28;20056;-75
2020/12/29 05:17:10;;;;;;;7.15;5.20;;;6.10;85.70;;;;;;5094319;28;20043;-75
2020/12/29 05:19:37;;;;;;;7.60;6.22;;;6.10;85.70;;;;;;5092953;28;20032;-75
2020/12/29 05:22:02;;;;;;;6.85;6.15;;;6.10;85.60;;;;;;5093335;28;20028;-76
2020/12/29 05:24:28;;;;;;;7.60;6.07;;;6.10;85.60;;;;;;5092931;28;20021;-75
2020/12/29 05:26:58;;;;;;;6.68;5.50;;;6.00;85.70;;;;;;5092775;28;20081;-75
2020/12/29 05:29:25;;;;;;;6.95;5.30;;;6.00;85.70;;;;;;5092743;28;20499;-75
2020/12/29 05:31:51;;;;;;;7.22;5.97;;;6.00;85.80;;;;;;5092672;28;20123;-75
2020/12/29 05:34:21;;;;;;;6.82;6.13;;;6.00;85.80;;;;;;5093230;28;20040;-75
2020/12/29 05:36:47;;;;;;;9.05;6.25;;;6.00;85.80;;;;;;5092561;28;20036;-75
2020/12/29 05:39:14;;;;;;;9.02;6.45;;;6.00;85.90;;;;;;5092578;28;20024;-75
2020/12/29 05:41:45;;;;;;;7.25;5.53;;;6.00;85.90;;;;;;5092517;28;20066;-75
2020/12/29 05:44:23;;;;;;;8.85;7.00;;;6.00;86.00;;;;;;5092396;28;20039;-75
2020/12/29 05:46:49;;;;;;;8.20;6.60;;;6.00;86.10;;;;;;5092466;28;20031;-75
2020/12/29 05:49:18;;;;;;;8.65;6.88;;;6.00;86.10;;;;;;5092635;28;20528;-75
2020/12/29 05:51:47;;;;;;;11.40;6.82;;;6.10;86.20;;;;;;5093145;28;20452;-75
2020/12/29 05:54:14;;;;;;;9.60;7.53;;;6.10;86.20;;;;;;5093553;28;20044;-75
2020/12/29 05:56:40;;;;;;;9.95;7.85;;;6.10;86.20;;;;;;5093470;28;20036;-75
2020/12/29 05:59:07;;;;;;;12.50;8.75;;;6.10;86.20;;;;;;5093536;28;20501;-75
2020/12/29 06:01:51;;;;;;;9.38;7.88;;;6.10;86.30;;;;;;5091928;28;20050;-75
2020/12/29 06:04:17;;;;;;;13.25;8.40;;;6.00;86.20;;;;;;5092128;28;20027;-75
2020/12/29 06:06:44;;;;;;;10.85;8.40;;;6.10;86.30;;;;;;5092276;28;20470;-75
2020/12/29 06:09:12;;;;;;;11.32;8.95;;;6.00;86.30;;;;;;5092236;28;20028;-75
2020/12/29 06:11:39;;;;;;;11.82;8.00;;;6.00;86.40;;;;;;5091928;28;20102;-75
2020/12/29 06:14:11;;;;;;;10.52;7.93;;;6.00;86.50;;;;;;5091904;28;20024;-75
2020/12/29 06:16:39;;;;;;;11.10;8.43;;;6.00;86.50;;;;;;5093128;28;20078;-75
2020/12/29 06:19:20;;;;;;;11.50;8.60;;;6.10;86.50;;;;;;5092311;28;20383;-75
2020/12/29 06:22:07;;;;;;;10.68;7.75;;;6.10;86.60;;;;;;5093082;28;20083;-75
2020/12/29 06:24:38;;;;;;;11.27;8.45;;;6.10;86.50;;;;;;5091815;28;20498;-75
2020/12/29 06:27:06;;;;;;;10.63;8.52;;;6.10;86.50;;;;;;5091723;28;20111;-74
2020/12/29 06:29:43;;;;;;;10.73;8.40;;;6.10;86.50;;;;;;5093335;28;20413;-75
2020/12/29 06:32:17;;;;;;;12.15;8.95;;;6.10;86.50;;;;;;5093009;28;20112;-74
2020/12/29 06:34:44;;;;;;;13.55;9.40;;;6.20;86.60;;;;;;5091571;28;20082;-76
2020/12/29 06:37:35;;;;;;;12.05;9.25;;;6.20;86.60;;;;;;5091621;28;20050;-76
2020/12/29 06:40:06;;;;;;;10.60;8.13;;;6.20;87.20;;;;;;5091513;28;20036;-76
2020/12/29 06:42:37;;;;;;;11.48;9.10;;;6.10;86.50;;;;;;5092869;28;20456;-75
2020/12/29 06:45:06;;;;;;;14.57;10.18;;;6.10;86.60;;;;;;5091433;28;20024;-76
2020/12/29 06:47:32;;;;;;;11.30;8.73;;;6.10;86.60;;;;;;5092932;28;20032;-76
2020/12/29 06:49:57;;;;;;;14.23;10.85;;;6.10;86.70;;;;;;5093184;28;20376;-76
2020/12/29 06:52:32;;;;;;;12.50;9.30;;;6.10;86.90;;;;;;5092275;28;20396;-76
2020/12/29 06:54:59;;;;;;;12.02;8.80;;;6.10;86.90;;;;;;5091537;28;20036;-76
2020/12/29 06:57:49;;;;;;;12.40;9.73;;;6.10;86.80;;;;;;5091511;28;20173;-76
2020/12/29 07:00:15;;;;;;;12.80;9.65;;;6.10;86.80;;;;;;5092706;28;20051;-76
2020/12/29 07:02:44;;;;;;;11.80;9.32;;;6.10;86.80;;;;;;5092613;28;20031;-76
2020/12/29 07:05:13;;;;;;;12.30;9.55;;;6.10;86.90;;;;;;5091182;28;20070;-76
2020/12/29 07:08:05;;;;;;;15.65;11.45;;;6.10;86.90;;;;;;5091148;28;20047;-76
2020/12/29 07:10:44;;;;;;;13.27;10.40;;;6.10;86.80;;;;;;5089511;28;20499;-74
2020/12/29 07:13:15;;;;;;;12.68;9.88;;;6.10;86.90;;;;;;5093051;28;20024;-74
2020/12/29 07:15:58;;;;;;;15.00;10.50;;;6.00;86.90;;;;;;5092472;28;20063;-74
2020/12/29 07:18:25;;;;;;;13.95;10.63;;;5.90;86.90;;;;;;5091522;28;20425;-74
2020/12/29 07:20:53;;;;;;;12.40;9.10;;;5.90;87.00;;;;;;5090957;28;20028;-73
2020/12/29 07:23:21;;;;;;;13.15;10.35;;;5.90;87.00;;;;;;5091064;28;20027;-74
2020/12/29 07:25:48;;;;;;;13.63;10.13;;;5.80;87.00;;;;;;5092424;28;20028;-74
2020/12/29 07:28:17;;;;;;;13.15;10.05;;;5.80;87.10;;;;;;5091158;28;20024;-74
2020/12/29 07:30:42;;;;;;;13.23;9.68;;;5.80;87.20;;;;;;5092334;28;20456;-73
2020/12/29 07:33:08;;;;;;;11.23;8.90;;;5.80;87.20;;;;;;5090945;28;20061;-74
2020/12/29 07:35:36;;;;;;;11.48;8.40;;;5.80;87.20;;;;;;5090988;28;20077;-74
2020/12/29 07:38:13;;;;;;;10.15;8.02;;;5.80;87.20;;;;;;5092267;28;20043;-74
2020/12/29 07:40:39;;;;;;;9.77;7.35;;;5.80;87.10;;;;;;5090803;28;20074;-73
2020/12/29 07:43:06;;;;;;;9.57;7.43;;;5.80;87.10;;;;;;5090826;28;20028;-73
2020/12/29 07:45:32;;;;;;;9.77;7.60;;;5.80;87.00;;;;;;5092245;28;20097;-74
2020/12/29 07:47:59;;;;;;;10.38;7.22;;;5.80;86.90;;;;;;5090970;28;20105;-74
2020/12/29 07:50:26;;;;;;;11.60;8.23;;;5.80;86.90;;;;;;5092213;28;20038;-73
2020/12/29 07:53:04;;;;;;;12.40;9.00;;;5.80;86.90;;;;;;5090867;28;20028;-74
2020/12/29 07:55:29;;;;;;;10.27;7.75;;;5.80;87.00;;;;;;5092111;28;20111;-73
2020/12/29 07:57:59;;;;;;;12.98;8.80;;;5.70;86.90;;;;;;5094041;28;20060;-73
2020/12/29 08:00:25;;;;;;;14.57;9.52;;;5.70;86.90;;;;;;5094210;28;20059;-73
2020/12/29 08:02:52;;;;;;;12.25;8.88;;;5.70;86.80;;;;;;5095662;28;20028;-74
2020/12/29 08:05:23;;;;;;;12.48;9.27;;;5.70;86.90;;;;;;5094160;28;20474;-74
2020/12/29 08:08:00;;;;;;;13.95;9.27;;;5.70;86.90;;;;;;5094069;28;20548;-74
2020/12/29 08:10:28;;;;;;;12.90;9.40;;;5.60;86.80;;;;;;5095684;28;20032;-74
2020/12/29 08:12:56;;;;;;;13.93;9.18;;;5.60;86.90;;;;;;5095396;28;20051;-73
2020/12/29 08:15:30;;;;;;;13.95;9.70;;;5.60;86.90;;;;;;5093978;28;20517;-74
2020/12/29 08:18:02;;;;;;;;;;;5.60;86.90;;;;;;5094320;28;20103;-73
2020/12/29 08:20:27;;;;;;;12.55;8.93;;;5.60;87.00;;;;;;5093868;28;19912;-74
2020/12/29 08:22:53;;;;;;;13.90;10.07;;;5.60;86.90;;;;;;5094211;28;20114;-74
2020/12/29 08:25:19;;;;;;;15.05;10.35;;;5.60;87.00;;;;;;5094938;28;20067;-74
2020/12/29 08:27:45;;;;;;;14.60;10.23;;;5.50;86.90;;;;;;5095010;28;20084;-74
2020/12/29 08:30:11;;;;;;;15.32;10.55;;;5.50;87.00;;;;;;5093723;28;20396;-73
2020/12/29 08:32:38;;;;;;;16.15;10.48;;;5.40;86.70;;;;;;5093717;28;20027;-73
2020/12/29 08:35:05;;;;;;;13.43;9.30;;;5.30;86.70;;;;;;5095102;28;20104;-74
2020/12/29 08:37:34;;;;;;;14.45;10.02;;;5.30;86.80;;;;;;5093506;28;20046;-74
2020/12/29 08:40:07;;;;;;;14.27;9.90;;;5.30;86.90;;;;;;5093444;28;20484;-73
2020/12/29 08:42:34;;;;;;;13.15;9.15;;;5.20;86.90;;;;;;5094732;28;20479;-74
2020/12/29 08:45:05;;;;;;;13.95;9.30;;;5.20;86.90;;;;;;5093272;28;20480;-74
2020/12/29 08:47:32;;;;;;;13.70;9.52;;;5.10;86.90;;;;;;5094709;28;20139;-73
2020/12/29 08:49:59;;;;;;;14.05;9.27;;;5.10;87.00;;;;;;5094705;28;20107;-74
2020/12/29 08:52:31;;;;;;;11.40;8.07;;;5.10;87.10;;;;;;5094657;28;20024;-74
2020/12/29 08:54:57;;;;;;;12.45;8.65;;;5.10;87.20;;;;;;5093282;28;20395;-73
2020/12/29 08:57:26;;;;;;;12.80;8.85;;;5.10;87.10;;;;;;5094530;28;20028;-74
2020/12/29 08:59:52;;;;;;;11.60;8.25;;;5.10;87.10;;;;;;5093019;28;20055;-73
2020/12/29 09:02:28;;;;;;;10.63;7.65;;;5.10;87.10;;;;;;5094512;28;20476;-74
2020/12/29 09:05:00;;;;;;;11.90;8.18;;;5.10;87.10;;;;;;5094644;28;20121;-73
2020/12/29 09:07:28;;;;;;;10.10;7.40;;;5.10;87.00;;;;;;5094533;28;20024;-75
2020/12/29 09:09:53;;;;;;;9.80;7.20;;;5.10;87.00;;;;;;5091905;28;20024;-73
2020/12/29 09:12:19;;;;;;;10.52;7.53;;;5.10;87.00;;;;;;5093031;28;20040;-73
2020/12/29 09:15:02;;;;;;;11.68;8.75;;;5.20;87.00;;;;;;5094291;28;20035;-73
2020/12/29 09:17:33;;;;;;;11.63;7.77;;;5.10;86.90;;;;;;5092981;28;20121;-72
2020/12/29 09:20:28;;;;;;;11.73;8.02;;;5.20;87.00;;;;;;5093991;28;20298;-73
2020/12/29 09:23:08;;;;;;;15.25;9.55;;;5.20;87.10;;;;;;5092724;28;20063;-73
2020/12/29 09:25:42;;;;;;;12.93;9.25;;;5.20;87.00;;;;;;5092692;28;20023;-73
2020/12/29 09:28:19;;;;;;;14.07;9.82;;;5.20;86.90;;;;;;5094583;28;20539;-73
2020/12/29 09:31:02;;;;;;;14.57;10.02;;;5.20;86.90;;;;;;5092667;28;20032;-72
2020/12/29 09:33:30;;;;;;;13.65;9.23;;;5.20;86.80;;;;;;5092807;28;20394;-72
2020/12/29 09:36:02;;;;;;;14.52;9.82;;;5.20;86.90;;;;;;5093825;28;20056;-73
2020/12/29 09:38:28;;;;;;;14.88;10.25;;;5.20;86.90;;;;;;5094050;28;20028;-73
2020/12/29 09:40:54;;;;;;;15.23;10.27;;;5.20;86.90;;;;;;5093676;28;20036;-73
2020/12/29 09:43:21;;;;;;;14.55;9.98;;;5.20;86.90;;;;;;5092392;28;20020;-72
2020/12/29 09:45:48;;;;;;;15.50;10.55;;;5.20;86.90;;;;;;5094017;28;20536;-73
2020/12/29 09:48:15;;;;;;;15.65;10.60;;;5.20;86.90;;;;;;5092479;28;20031;-73
2020/12/29 09:50:42;;;;;;;15.02;10.25;;;5.10;87.00;;;;;;5092420;28;20024;-75
2020/12/29 09:53:08;;;;;;;15.18;10.25;;;5.10;87.00;;;;;;5092345;28;20028;-73
2020/12/29 09:55:33;;;;;;;12.77;8.95;;;5.20;87.10;;;;;;5092317;28;20128;-73
2020/12/29 09:57:59;;;;;;;13.38;9.55;;;5.20;87.10;;;;;;5092283;28;20063;-73
2020/12/29 10:00:25;;;;;;;12.55;9.18;;;5.20;87.20;;;;;;5092111;28;20050;-73
2020/12/29 10:02:50;;;;;;;13.32;9.18;;;5.20;87.20;;;;;;5092143;28;20086;-74
2020/12/29 10:05:16;;;;;;;12.95;9.25;;;5.30;87.20;;;;;;5092070;28;20081;-73
2020/12/29 10:07:46;;;;;;;12.85;8.90;;;5.30;87.10;;;;;;5092106;28;20024;-74
2020/12/29 10:10:12;;;;;;;12.60;8.82;;;5.30;87.20;;;;;;5091858;28;20055;-73
2020/12/29 10:12:56;;;;;;;14.10;9.63;;;5.30;87.10;;;;;;5091893;28;20028;-73
2020/12/29 10:15:22;;;;;;;13.15;8.82;;;5.30;87.10;;;;;;5093250;28;20110;-72
2020/12/29 10:17:47;;;;;;;13.15;9.25;;;5.30;87.20;;;;;;5093247;28;20055;-73
2020/12/29 10:20:14;;;;;;;13.30;8.73;;;5.30;87.20;;;;;;5091835;28;20024;-72
2020/12/29 10:22:40;;;;;;;11.88;8.48;;;5.40;87.20;;;;;;5091911;28;20414;-72
2020/12/29 10:25:10;;;;;;;12.23;8.55;;;5.40;87.10;;;;;;5091832;28;20024;-73
2020/12/29 10:27:36;;;;;;;12.73;8.00;;;5.40;87.10;;;;;;5091752;28;20176;-73
2020/12/29 10:30:03;;;;;;;12.13;8.23;;;5.50;87.20;;;;;;5091757;28;20123;-74
2020/12/29 10:32:28;;;;;;;11.25;8.20;;;5.50;87.20;;;;;;5091670;28;20032;-73
2020/12/29 10:34:54;;;;;;;12.13;8.82;;;5.60;87.10;;;;;;5091621;28;20475;-74
2020/12/29 10:37:20;;;;;;;13.10;8.80;;;5.60;87.00;;;;;;5092956;28;20035;-74
2020/12/29 10:39:46;;;;;;;10.52;7.60;;;5.60;87.10;;;;;;5093325;28;20020;-73
2020/12/29 10:42:12;;;;;;;11.82;8.18;;;5.60;87.10;;;;;;5091417;28;20053;-73
2020/12/29 10:44:37;;;;;;;9.82;7.13;;;5.70;87.10;;;;;;5091652;28;20114;-74
2020/12/29 10:47:03;;;;;;;11.25;8.15;;;5.70;87.00;;;;;;5092943;28;20478;-73
2020/12/29 10:49:29;;;;;;;11.82;8.63;;;5.70;86.90;;;;;;5092930;28;20032;-73
2020/12/29 10:51:55;;;;;;;11.50;8.32;;;5.70;86.90;;;;;;5091523;28;20020;-73
2020/12/29 10:54:20;;;;;;;14.30;9.80;;;5.70;87.00;;;;;;5091568;28;20452;-73
2020/12/29 10:56:46;;;;;;;14.73;10.57;;;5.70;87.00;;;;;;5091571;28;20024;-73
2020/12/29 10:59:12;;;;;;;12.27;8.35;;;5.70;87.00;;;;;;5091387;28;20088;-73
2020/12/29 11:01:38;;;;;;;12.48;8.70;;;5.70;87.10;;;;;;5091064;28;20043;-73
2020/12/29 11:04:04;;;;;;;12.40;8.98;;;5.70;87.10;;;;;;5093139;28;20032;-73
2020/12/29 11:06:29;;;;;;;12.38;8.88;;;5.70;86.90;;;;;;5091709;28;20441;-73
2020/12/29 11:08:55;;;;;;;12.93;9.00;;;5.70;87.00;;;;;;5091592;28;20020;-74
2020/12/29 11:11:21;;;;;;;13.48;10.07;;;5.80;87.10;;;;;;5093254;28;20051;-73
2020/12/29 11:13:47;;;;;;;13.57;9.90;;;5.80;87.00;;;;;;5092796;28;20126;-73
2020/12/29 11:16:18;;;;;;;13.45;9.70;;;5.80;87.00;;;;;;5092854;28;20024;-73
2020/12/29 11:18:48;;;;;;;13.10;9.20;;;5.80;87.10;;;;;;5092770;28;20028;-73
2020/12/29 11:21:18;;;;;;;16.15;10.75;;;5.80;87.10;;;;;;5091399;28;20047;-73
2020/12/29 11:23:45;;;;;;;13.75;9.43;;;5.80;87.00;;;;;;5091326;28;20091;-74
2020/12/29 11:26:15;;;;;;;14.80;10.23;;;5.70;86.90;;;;;;5091525;28;20052;-73
2020/12/29 11:28:40;;;;;;;12.73;8.93;;;5.70;87.70;;;;;;5091235;28;20032;-73
2020/12/29 11:31:06;;;;;;;13.18;9.23;;;5.70;87.20;;;;;;5091428;28;20036;-73
2020/12/29 11:33:32;;;;;;;13.23;9.82;;;5.60;87.20;;;;;;5094254;28;20026;-74
2020/12/29 11:35:57;;;;;;;13.27;9.88;;;5.70;87.30;;;;;;5095134;28;20028;-73
2020/12/29 11:38:23;;;;;;;13.00;9.82;;;5.70;87.20;;;;;;5096441;28;20406;-74
2020/12/29 11:40:50;;;;;;;12.57;9.10;;;5.70;87.20;;;;;;5094806;28;20035;-73
2020/12/29 11:43:15;;;;;;;13.65;10.00;;;5.80;87.20;;;;;;5094946;28;20051;-73
2020/12/29 11:45:44;;;;;;;12.75;9.45;;;5.80;87.10;;;;;;5095060;28;20435;-74
2020/12/29 11:48:10;;;;;;;13.50;9.88;;;5.80;87.00;;;;;;5096409;28;20079;-75
2020/12/29 11:50:36;;;;;;;12.70;9.77;;;5.80;86.90;;;;;;5096180;28;20032;-74
2020/12/29 11:53:02;;;;;;;13.48;9.95;;;5.80;87.00;;;;;;5096484;28;20035;-73
2020/12/29 11:55:27;;;;;;;13.48;9.77;;;5.80;86.90;;;;;;5095137;28;20490;-74
2020/12/29 11:57:53;;;;;;;15.95;10.05;;;5.90;87.00;;;;;;5094740;28;20455;-73
2020/12/29 12:00:19;;;;;;;13.85;9.90;;;5.90;86.90;;;;;;5094695;28;20047;-73
2020/12/29 12:02:44;;;;;;;14.65;10.65;;;5.90;86.90;;;;;;5094382;28;20052;-73
2020/12/29 12:05:14;;;;;;;14.80;10.55;;;5.90;86.90;;;;;;5095965;28;20035;-74
2020/12/29 12:07:39;;;;;;;15.60;10.80;;;5.90;86.80;;;;;;5094739;28;20441;-74
2020/12/29 12:10:07;;;;;;;15.13;10.63;;;5.90;86.90;;;;;;5094576;28;20027;-74
2020/12/29 12:12:32;;;;;;;16.08;11.65;;;5.90;86.80;;;;;;5096051;28;20032;-74
2020/12/29 12:14:58;;;;;;;17.00;11.07;;;5.90;86.90;;;;;;5094286;28;20030;-74
2020/12/29 12:17:24;;;;;;;16.67;11.48;;;5.90;86.90;;;;;;5094427;28;20028;-74
2020/12/29 12:19:49;;;;;;;15.75;10.85;;;6.00;87.00;;;;;;5094382;28;20112;-74
2020/12/29 12:22:15;;;;;;;15.77;10.02;;;6.00;86.90;;;;;;5094426;28;20024;-74
2020/12/29 12:24:41;;;;;;;17.77;11.48;;;6.00;86.90;;;;;;5094239;28;20032;-73
2020/12/29 12:27:08;;;;;;;17.80;11.48;;;6.00;86.90;;;;;;5095527;28;20032;-74
2020/12/29 12:29:34;;;;;;;19.80;12.98;;;6.10;86.90;;;;;;5095492;28;20028;-74
2020/12/29 12:31:59;;;;;;;17.63;11.80;;;6.10;86.90;;;;;;5094362;28;20152;-74
2020/12/29 12:34:25;;;;;;;17.63;11.73;;;6.20;86.90;;;;;;5094104;28;20028;-74
2020/12/29 12:36:52;;;;;;;19.83;12.35;;;6.20;86.90;;;;;;5094052;28;20073;-73
2020/12/29 12:39:18;;;;;;;18.50;12.75;;;6.20;86.90;;;;;;5093830;28;20036;-74
2020/12/29 12:41:43;;;;;;;21.77;14.05;;;6.30;86.90;;;;;;5093938;28;20139;-74
2020/12/29 12:44:09;;;;;;;20.08;13.48;;;6.20;86.80;;;;;;5094899;28;20032;-73
2020/12/29 12:46:35;;;;;;;20.60;14.50;;;6.30;86.90;;;;;;5095240;28;20495;-74
2020/12/29 12:49:00;;;;;;;20.88;15.07;;;6.40;86.90;;;;;;5093913;28;20027;-74
2020/12/29 12:51:26;;;;;;;18.77;13.77;;;6.40;86.80;;;;;;5095358;28;20049;-74